Terminal Aerodrome Forecast
Issued by NWS

Home | Current Version | Previous Version | Text Only | Print | Product List | Glossary On
Versions: 1 2 3 4 5 6 7 8 9 10 11 12 13 14 15 16
000
FTUS41 KBOX 302344 AAA
TAFFMH
TAF AMD
KFMH 302344Z 3100/3124 30006KT P6SM SCT200
     FM311100 VRB03KT P6SM VCSH OVC060
     FM311500 09004KT 1SM BR VCSH OVC025
     FM311700 08005KT 1SM -RA BR OVC025
     FM311900 08006KT 1SM -SNPLRA BR OVC020
     FM312100 09007KT 3SM -PLRA OVC010
     FM312200 09009KT 5SM -RA OVC010=

USA.gov is the U.S. government's official web portal to all federal, state and local government web resources and services.